Time;durP1;ratioP1;P1;durP2;ratioP2;P2;SDS_P1;SDS_P2;PMS_P1;PMS_P2;Temp;Humidity;BMP_temperature;BMP_pressure;BME280_temperature;BME280_humidity;BME280_pressure;Samples;Min_cycle;Max_cycle;Signal;HPM_P1;HPM_P2
2023/06/24 00:00:11;;;;;;;7.20;5.75;;;18.00;99.90;;;;;;5022487;28;20045;-63
2023/06/24 00:02:43;;;;;;;6.00;5.05;;;18.00;99.90;;;;;;5028102;28;20076;-67
2023/06/24 00:05:11;;;;;;;5.72;5.00;;;18.00;99.90;;;;;;5025252;28;20053;-64
2023/06/24 00:07:44;;;;;;;5.07;4.60;;;17.90;99.90;;;;;;5025424;28;20594;-66
2023/06/24 00:10:15;;;;;;;6.55;5.97;;;17.90;99.90;;;;;;5025414;28;20471;-63
2023/06/24 00:12:44;;;;;;;5.38;4.88;;;17.70;99.90;;;;;;5027518;28;20115;-66
2023/06/24 00:15:11;;;;;;;4.97;4.53;;;17.60;99.90;;;;;;5023714;28;20455;-63
2023/06/24 00:17:39;;;;;;;6.88;5.03;;;17.50;99.90;;;;;;5022782;28;20076;-62
2023/06/24 00:20:09;;;;;;;5.75;4.85;;;17.50;99.90;;;;;;5020525;28;20077;-62
2023/06/24 00:22:44;;;;;;;5.73;5.17;;;17.40;99.90;;;;;;5023140;28;20045;-65
2023/06/24 00:25:11;;;;;;;5.15;4.65;;;17.40;99.90;;;;;;5026564;28;20294;-62
2023/06/24 00:27:38;;;;;;;4.88;4.47;;;17.30;99.90;;;;;;5022963;28;20040;-64
2023/06/24 00:30:06;;;;;;;7.13;5.97;;;17.30;99.90;;;;;;5023702;28;20534;-64
2023/06/24 00:32:34;;;;;;;6.47;5.85;;;17.30;99.90;;;;;;5023306;28;20044;-62
2023/06/24 00:35:01;;;;;;;6.38;5.35;;;17.30;99.90;;;;;;5025733;28;20045;-62
2023/06/24 00:37:28;;;;;;;5.47;4.97;;;17.30;99.90;;;;;;5026176;28;20052;-62
2023/06/24 00:39:55;;;;;;;7.80;6.82;;;17.30;99.90;;;;;;5024686;28;20557;-64
2023/06/24 00:42:22;;;;;;;8.13;6.53;;;17.30;99.90;;;;;;5022260;28;20042;-64
2023/06/24 00:44:49;;;;;;;9.35;6.55;;;17.20;99.90;;;;;;5027196;28;20049;-63
2023/06/24 00:47:16;;;;;;;7.07;5.45;;;17.20;99.90;;;;;;5040235;28;20076;-63
2023/06/24 00:49:45;;;;;;;7.55;6.20;;;17.10;99.90;;;;;;5025041;28;20106;-67
2023/06/24 00:52:15;;;;;;;7.25;6.55;;;17.10;99.90;;;;;;5021432;28;20054;-62
2023/06/24 00:54:43;;;;;;;8.10;5.72;;;17.10;99.90;;;;;;5027256;28;20042;-68
2023/06/24 00:57:11;;;;;;;9.00;6.97;;;17.00;99.90;;;;;;5025031;28;20053;-63
2023/06/24 00:59:40;;;;;;;8.88;5.93;;;17.00;99.90;;;;;;5023639;28;20057;-62
2023/06/24 01:02:07;;;;;;;8.18;6.25;;;17.00;99.90;;;;;;5026935;28;20065;-61
2023/06/24 01:04:34;;;;;;;9.15;6.22;;;17.00;99.90;;;;;;5022869;28;20053;-61
2023/06/24 01:07:01;;;;;;;11.48;8.00;;;17.00;99.90;;;;;;5025048;28;20057;-66
2023/06/24 01:09:28;;;;;;;9.52;7.47;;;16.90;99.90;;;;;;5024974;28;20073;-62
2023/06/24 01:11:56;;;;;;;9.40;6.68;;;16.90;99.90;;;;;;5027629;28;20657;-62
2023/06/24 01:14:23;;;;;;;7.45;6.72;;;16.80;99.90;;;;;;5020413;28;20045;-65
2023/06/24 01:17:08;;;;;;;9.82;8.23;;;16.80;99.90;;;;;;5022893;28;20065;-65
2023/06/24 01:19:54;;;;;;;9.43;8.43;;;16.70;99.90;;;;;;5022048;28;20099;-65
2023/06/24 01:22:46;;;;;;;10.85;7.97;;;16.60;99.90;;;;;;5020468;28;20050;-64
2023/06/24 01:25:42;;;;;;;10.38;9.18;;;16.60;99.90;;;;;;5022958;28;20053;-63
2023/06/24 01:28:19;;;;;;;12.20;9.48;;;16.50;99.90;;;;;;5020345;28;20049;-65
2023/06/24 01:31:02;;;;;;;12.20;10.23;;;16.50;99.90;;;;;;5023178;28;20037;-63
2023/06/24 01:33:55;;;;;;;11.48;9.48;;;16.50;99.90;;;;;;5025445;28;20041;-65
2023/06/24 01:36:24;;;;;;;10.10;8.63;;;16.50;99.90;;;;;;5019820;28;20135;-63
2023/06/24 01:39:00;;;;;;;11.20;10.10;;;16.50;99.90;;;;;;5025265;28;20056;-63
2023/06/24 01:41:34;;;;;;;16.00;10.10;;;16.40;99.90;;;;;;5022818;28;20095;-62
2023/06/24 01:44:01;;;;;;;11.82;8.93;;;16.40;99.90;;;;;;5024130;28;20053;-65
2023/06/24 01:46:29;;;;;;;11.27;10.07;;;16.40;99.90;;;;;;5023100;28;20049;-63
2023/06/24 01:49:03;;;;;;;11.73;9.30;;;16.40;99.90;;;;;;5023064;28;20088;-63
2023/06/24 01:51:31;;;;;;;11.75;10.25;;;16.40;99.90;;;;;;5025497;28;20043;-63
2023/06/24 01:54:03;;;;;;;11.65;9.38;;;16.40;99.90;;;;;;5023386;28;20103;-65
2023/06/24 01:56:31;;;;;;;18.48;11.63;;;16.40;99.90;;;;;;5019369;28;20558;-62
2023/06/24 01:59:01;;;;;;;11.48;9.85;;;16.40;99.90;;;;;;5026212;28;20049;-63
2023/06/24 02:01:31;;;;;;;14.32;10.85;;;16.40;99.90;;;;;;5018960;28;20084;-64
2023/06/24 02:04:00;;;;;;;14.45;11.35;;;16.30;99.90;;;;;;5020570;28;20037;-69
2023/06/24 02:06:29;;;;;;;13.50;10.15;;;16.30;99.90;;;;;;5016157;28;20491;-62
2023/06/24 02:08:58;;;;;;;12.75;11.40;;;16.30;99.90;;;;;;5017385;28;20053;-63
2023/06/24 02:11:28;;;;;;;12.68;10.63;;;16.30;99.90;;;;;;5022486;28;20731;-66
2023/06/24 02:13:56;;;;;;;14.05;11.77;;;16.30;99.90;;;;;;5022303;28;20049;-64
2023/06/24 02:16:24;;;;;;;13.88;11.35;;;16.20;99.90;;;;;;5019505;28;20099;-63
2023/06/24 02:18:52;;;;;;;13.93;10.60;;;16.20;99.90;;;;;;5024313;28;20137;-64
2023/06/24 02:21:22;;;;;;;14.48;10.73;;;16.20;99.90;;;;;;5021858;28;20190;-64
2023/06/24 02:23:51;;;;;;;12.43;11.05;;;16.20;99.90;;;;;;5031777;28;20068;-65
2023/06/24 02:26:19;;;;;;;14.73;10.80;;;16.20;99.90;;;;;;5018843;28;20084;-64
2023/06/24 02:28:48;;;;;;;16.30;9.95;;;16.20;99.90;;;;;;5025673;28;20053;-65
2023/06/24 02:31:16;;;;;;;12.07;10.77;;;16.20;99.90;;;;;;5017774;28;20119;-62
2023/06/24 02:33:43;;;;;;;12.25;9.20;;;16.20;99.90;;;;;;5024062;28;20045;-63
2023/06/24 02:36:11;;;;;;;12.00;10.80;;;16.20;99.90;;;;;;5019390;28;20084;-63
2023/06/24 02:38:38;;;;;;;12.90;9.82;;;16.20;99.90;;;;;;5020840;28;20053;-62
2023/06/24 02:41:05;;;;;;;12.10;10.90;;;16.20;99.90;;;;;;5024030;28;20037;-62
2023/06/24 02:43:32;;;;;;;13.13;10.07;;;16.20;99.90;;;;;;5020321;28;20049;-63
2023/06/24 02:46:02;;;;;;;14.82;10.30;;;16.20;99.90;;;;;;5025638;28;20423;-66
2023/06/24 02:48:32;;;;;;;11.47;9.50;;;16.20;99.90;;;;;;5024561;28;20049;-63
2023/06/24 02:51:00;;;;;;;11.95;10.30;;;16.20;99.90;;;;;;5023861;28;20360;-63
2023/06/24 02:53:27;;;;;;;11.88;10.77;;;16.30;99.90;;;;;;5024438;28;20065;-64
2023/06/24 02:55:56;;;;;;;11.90;10.70;;;16.30;99.90;;;;;;5025666;28;20171;-61
2023/06/24 02:58:31;;;;;;;13.60;11.27;;;16.20;99.90;;;;;;5022390;28;20084;-66
2023/06/24 03:01:08;;;;;;;12.65;9.65;;;16.20;99.90;;;;;;5036149;28;20483;-67
2023/06/24 03:03:56;;;;;;;14.40;12.20;;;16.20;99.90;;;;;;5022921;28;20136;-63
2023/06/24 03:06:24;;;;;;;11.77;10.40;;;16.20;99.90;;;;;;5022630;28;20041;-63
2023/06/24 03:08:54;;;;;;;13.75;10.55;;;16.20;99.90;;;;;;5019410;28;20107;-64
2023/06/24 03:11:22;;;;;;;13.75;10.93;;;16.20;99.90;;;;;;5021773;28;20083;-64
2023/06/24 03:13:49;;;;;;;16.45;12.32;;;16.30;99.90;;;;;;5023268;28;20072;-64
2023/06/24 03:16:29;;;;;;;13.53;10.53;;;16.20;99.90;;;;;;5023414;28;20065;-64
2023/06/24 03:19:02;;;;;;;15.02;10.90;;;16.20;99.90;;;;;;5024808;28;20065;-64
2023/06/24 03:21:29;;;;;;;11.15;9.95;;;16.30;99.90;;;;;;5040329;28;20050;-62
2023/06/24 03:24:05;;;;;;;11.57;9.75;;;16.30;99.90;;;;;;5025239;28;20091;-64
2023/06/24 03:26:36;;;;;;;11.02;9.65;;;16.20;99.90;;;;;;5029203;28;20470;-62
2023/06/24 03:29:06;;;;;;;12.73;11.07;;;16.20;99.90;;;;;;5026355;28;20231;-62
2023/06/24 03:31:33;;;;;;;14.30;10.82;;;16.20;99.90;;;;;;5024708;28;20472;-62
2023/06/24 03:34:00;;;;;;;15.68;12.60;;;16.30;99.90;;;;;;5023590;28;20091;-63
2023/06/24 03:36:28;;;;;;;17.23;13.43;;;16.30;99.90;;;;;;5034948;28;20142;-63
2023/06/24 03:38:55;;;;;;;15.18;12.73;;;16.40;99.90;;;;;;5042245;28;20080;-64
2023/06/24 03:41:22;;;;;;;20.13;14.50;;;16.40;99.90;;;;;;5024086;28;20045;-69
2023/06/24 03:43:48;;;;;;;21.23;15.45;;;16.40;99.90;;;;;;5025519;28;20124;-62
2023/06/24 03:46:15;;;;;;;18.83;14.10;;;16.50;99.90;;;;;;5026292;28;20045;-63
2023/06/24 03:48:43;;;;;;;16.67;14.77;;;16.40;99.90;;;;;;5026434;28;20053;-63
2023/06/24 03:51:11;;;;;;;17.05;13.98;;;16.50;99.90;;;;;;5031251;28;20056;-62
2023/06/24 03:53:39;;;;;;;17.67;14.18;;;16.50;99.90;;;;;;5026529;28;20053;-61
2023/06/24 03:56:06;;;;;;;18.58;14.57;;;16.40;99.90;;;;;;5022774;28;20038;-62
2023/06/24 03:58:33;;;;;;;17.52;13.98;;;16.50;99.90;;;;;;5039933;28;20486;-63
2023/06/24 04:01:02;;;;;;;16.88;15.00;;;16.50;99.90;;;;;;5024372;28;20076;-62
2023/06/24 04:03:29;;;;;;;20.02;13.18;;;16.50;99.90;;;;;;5024851;28;20049;-62
2023/06/24 04:05:56;;;;;;;13.98;12.48;;;16.50;99.90;;;;;;5021636;28;20048;-63
2023/06/24 04:08:29;;;;;;;16.10;12.93;;;16.60;99.90;;;;;;5025036;28;20490;-62
2023/06/24 04:11:03;;;;;;;12.10;10.75;;;16.60;99.90;;;;;;5023834;28;20563;-64
2023/06/24 04:13:30;;;;;;;13.98;11.98;;;16.70;99.90;;;;;;5026286;28;20152;-62
2023/06/24 04:16:00;;;;;;;14.98;11.65;;;16.70;99.90;;;;;;5025338;28;20049;-65
2023/06/24 04:18:27;;;;;;;14.30;10.27;;;16.70;99.90;;;;;;5024967;28;20077;-64
2023/06/24 04:20:54;;;;;;;14.07;10.60;;;16.80;99.90;;;;;;5018814;28;20050;-62
2023/06/24 04:23:21;;;;;;;10.52;9.43;;;16.90;99.90;;;;;;5039589;28;20041;-66
2023/06/24 04:25:48;;;;;;;11.35;9.43;;;16.90;99.90;;;;;;5026662;28;20703;-64
2023/06/24 04:28:15;;;;;;;13.27;9.95;;;16.90;99.90;;;;;;5024903;28;20053;-61
2023/06/24 04:30:42;;;;;;;11.75;10.23;;;17.00;99.90;;;;;;5024924;28;20038;-63
2023/06/24 04:33:09;;;;;;;11.13;9.20;;;17.10;99.90;;;;;;5019065;28;20072;-65
2023/06/24 04:35:36;;;;;;;9.90;9.00;;;17.10;99.90;;;;;;5025002;28;20061;-62
2023/06/24 04:38:04;;;;;;;11.82;8.82;;;17.20;99.90;;;;;;5022374;28;20132;-65
2023/06/24 04:40:32;;;;;;;12.38;9.75;;;17.20;99.90;;;;;;5023667;28;20501;-63
2023/06/24 04:42:59;;;;;;;8.93;7.65;;;17.30;99.90;;;;;;5026126;28;20084;-64
2023/06/24 04:45:25;;;;;;;11.13;7.93;;;17.30;99.90;;;;;;5023612;28;20069;-62
2023/06/24 04:47:53;;;;;;;11.15;7.75;;;17.30;99.90;;;;;;5025232;28;20049;-62
2023/06/24 04:50:20;;;;;;;8.85;7.40;;;17.40;99.90;;;;;;5023945;28;20044;-64
2023/06/24 04:52:53;;;;;;;8.98;7.40;;;17.40;99.90;;;;;;5025053;28;20049;-66
2023/06/24 04:55:22;;;;;;;7.25;6.63;;;17.50;99.90;;;;;;5023059;28;20048;-64
2023/06/24 04:57:49;;;;;;;8.38;5.90;;;17.50;99.90;;;;;;5028134;28;20494;-62
2023/06/24 05:00:16;;;;;;;8.73;7.40;;;17.60;99.90;;;;;;5025821;28;20120;-62
2023/06/24 05:02:43;;;;;;;6.55;5.93;;;17.70;99.90;;;;;;5025886;28;20080;-63
2023/06/24 05:05:10;;;;;;;6.05;5.32;;;17.70;99.90;;;;;;5026298;28;20538;-63
2023/06/24 05:07:37;;;;;;;6.78;5.63;;;17.80;99.90;;;;;;5023108;28;20041;-62
2023/06/24 05:10:04;;;;;;;6.63;5.95;;;17.90;99.90;;;;;;5027793;28;20457;-63
2023/06/24 05:12:31;;;;;;;6.25;5.65;;;17.90;99.90;;;;;;5022303;28;20734;-63
2023/06/24 05:14:58;;;;;;;8.18;5.82;;;18.00;99.90;;;;;;5024110;28;20042;-62
2023/06/24 05:17:24;;;;;;;5.32;4.80;;;18.10;99.90;;;;;;5025661;28;20475;-63
2023/06/24 05:19:51;;;;;;;9.80;6.03;;;18.20;99.90;;;;;;5025409;28;20121;-62
2023/06/24 05:22:18;;;;;;;5.38;4.88;;;18.20;99.90;;;;;;5025741;28;20083;-64
2023/06/24 05:24:45;;;;;;;7.82;4.97;;;18.30;99.90;;;;;;5026118;28;20096;-64
2023/06/24 05:27:12;;;;;;;5.40;4.78;;;18.40;99.90;;;;;;5025638;28;20179;-63
2023/06/24 05:29:39;;;;;;;8.40;4.45;;;18.50;99.90;;;;;;5021535;28;20613;-62
2023/06/24 05:32:06;;;;;;;7.00;4.30;;;18.60;99.90;;;;;;5023704;28;20510;-62
2023/06/24 05:34:34;;;;;;;5.28;4.75;;;18.60;99.90;;;;;;5021448;28;20097;-62
2023/06/24 05:37:02;;;;;;;5.47;3.85;;;18.60;99.90;;;;;;5025018;28;20096;-64
2023/06/24 05:39:29;;;;;;;4.00;3.70;;;18.70;99.90;;;;;;5025217;28;20057;-64
2023/06/24 05:41:56;;;;;;;4.32;3.50;;;18.70;99.90;;;;;;5022261;28;20107;-62
2023/06/24 05:44:23;;;;;;;5.43;3.60;;;18.80;99.90;;;;;;5021232;28;20100;-63
2023/06/24 05:46:50;;;;;;;5.72;3.78;;;18.80;99.90;;;;;;5020199;28;20045;-63
2023/06/24 05:49:17;;;;;;;4.68;4.03;;;18.80;99.90;;;;;;5024226;28;20324;-62
2023/06/24 05:51:44;;;;;;;4.28;3.88;;;18.90;99.90;;;;;;5024994;28;20049;-62
2023/06/24 05:54:11;;;;;;;4.63;4.15;;;18.90;99.90;;;;;;5024328;28;20049;-64
2023/06/24 05:56:38;;;;;;;4.47;3.97;;;18.90;99.90;;;;;;5024061;28;20049;-62
2023/06/24 05:59:06;;;;;;;4.38;3.97;;;19.00;99.90;;;;;;5025801;28;20041;-64
2023/06/24 06:01:33;;;;;;;4.90;4.10;;;19.10;99.90;;;;;;5018634;28;20049;-64
2023/06/24 06:04:00;;;;;;;5.45;3.42;;;19.20;99.90;;;;;;5025961;28;20049;-65
2023/06/24 06:06:27;;;;;;;3.25;2.95;;;19.30;99.90;;;;;;5024255;28;20091;-63
2023/06/24 06:08:53;;;;;;;4.53;3.60;;;19.30;99.90;;;;;;5023256;28;20085;-63
2023/06/24 06:11:20;;;;;;;3.90;3.50;;;19.40;99.90;;;;;;5024403;28;20154;-64
2023/06/24 06:13:47;;;;;;;3.70;3.20;;;19.40;99.90;;;;;;5023127;28;20463;-63
2023/06/24 06:16:14;;;;;;;5.72;3.95;;;19.50;99.90;;;;;;5024940;28;20038;-62
2023/06/24 06:18:41;;;;;;;3.92;3.45;;;19.50;99.90;;;;;;5024099;28;20139;-63
2023/06/24 06:21:08;;;;;;;3.72;3.42;;;19.60;99.90;;;;;;5022537;28;20037;-66
2023/06/24 06:23:35;;;;;;;4.28;3.88;;;19.70;99.90;;;;;;5023260;28;20114;-63
2023/06/24 06:26:02;;;;;;;4.32;3.90;;;19.80;99.90;;;;;;5026360;28;20045;-63
2023/06/24 06:28:29;;;;;;;3.40;3.10;;;19.80;99.90;;;;;;5023689;28;20045;-64
2023/06/24 06:30:57;;;;;;;4.03;3.63;;;19.90;99.90;;;;;;5026638;28;20045;-62
2023/06/24 06:33:23;;;;;;;6.35;4.28;;;19.90;99.90;;;;;;5024352;28;20046;-67
2023/06/24 06:35:50;;;;;;;4.68;3.70;;;20.00;99.90;;;;;;5020958;28;20544;-64
2023/06/24 06:38:17;;;;;;;3.55;2.92;;;20.10;99.90;;;;;;5024114;28;20041;-65
2023/06/24 06:40:44;;;;;;;3.15;2.85;;;20.20;99.90;;;;;;5021367;28;20046;-62
2023/06/24 06:43:11;;;;;;;3.08;2.78;;;20.20;99.90;;;;;;5021565;28;20144;-63
2023/06/24 06:45:38;;;;;;;4.80;3.20;;;20.30;99.90;;;;;;5021861;28;20127;-62
2023/06/24 06:48:07;;;;;;;5.78;3.30;;;20.30;99.90;;;;;;5023156;28;20107;-66
2023/06/24 06:50:34;;;;;;;3.67;3.05;;;20.40;99.90;;;;;;5020054;28;20597;-66
2023/06/24 06:53:01;;;;;;;3.63;3.33;;;20.50;99.90;;;;;;5030310;28;20124;-62
2023/06/24 06:55:29;;;;;;;3.72;2.95;;;20.60;99.90;;;;;;5026106;28;20053;-69
2023/06/24 06:57:55;;;;;;;4.00;3.00;;;20.70;99.90;;;;;;5030346;28;20049;-65
2023/06/24 07:00:22;;;;;;;3.38;2.75;;;20.80;99.90;;;;;;5027343;28;20041;-66
2023/06/24 07:02:49;;;;;;;2.60;2.40;;;20.80;99.90;;;;;;5028309;28;20053;-62
2023/06/24 07:05:16;;;;;;;4.57;2.58;;;20.90;99.90;;;;;;5028962;28;20042;-62
2023/06/24 07:07:45;;;;;;;3.53;3.20;;;21.00;99.90;;;;;;5023757;28;20107;-66
2023/06/24 07:10:12;;;;;;;3.75;2.85;;;21.10;99.90;;;;;;5028925;28;20426;-62
2023/06/24 07:12:40;;;;;;;3.15;2.90;;;21.00;99.90;;;;;;5025811;28;20072;-63
2023/06/24 07:15:07;;;;;;;4.07;2.97;;;21.00;99.90;;;;;;5028341;28;20045;-62
2023/06/24 07:17:38;;;;;;;3.53;2.78;;;20.90;99.90;;;;;;5027117;28;20121;-62
2023/06/24 07:20:05;;;;;;;2.20;1.98;;;20.80;99.90;;;;;;5027718;28;20041;-65
2023/06/24 07:22:32;;;;;;;3.10;2.90;;;20.80;99.90;;;;;;5025442;28;20053;-62
2023/06/24 07:25:00;;;;;;;6.85;3.60;;;20.70;99.90;;;;;;5027090;28;20805;-61
2023/06/24 07:27:27;;;;;;;3.40;2.90;;;20.80;99.90;;;;;;5028583;28;20049;-62
2023/06/24 07:29:54;;;;;;;3.00;2.75;;;20.70;99.90;;;;;;5028479;28;20120;-62
2023/06/24 07:32:20;;;;;;;3.33;2.90;;;20.70;99.90;;;;;;5026722;28;20087;-65
2023/06/24 07:34:47;;;;;;;3.13;2.53;;;20.60;99.90;;;;;;5027499;28;20099;-64
2023/06/24 07:37:14;;;;;;;2.67;2.47;;;20.60;99.90;;;;;;5027206;28;20046;-63
2023/06/24 07:39:51;;;;;;;4.43;2.92;;;20.60;99.90;;;;;;5025048;28;20068;-62
2023/06/24 07:42:18;;;;;;;2.70;2.50;;;20.60;99.90;;;;;;5025933;28;20549;-66
2023/06/24 07:44:46;;;;;;;3.67;3.38;;;20.60;99.90;;;;;;5026001;28;20470;-64
2023/06/24 07:47:14;;;;;;;3.08;2.53;;;20.70;99.90;;;;;;5026822;28;20060;-63
2023/06/24 07:49:41;;;;;;;3.30;2.85;;;20.70;99.90;;;;;;5027361;28;20491;-62
2023/06/24 07:52:08;;;;;;;2.25;2.08;;;20.80;99.90;;;;;;5028688;28;20459;-62
2023/06/24 07:54:35;;;;;;;3.85;2.67;;;20.90;99.90;;;;;;5024946;28;20049;-62
2023/06/24 07:57:03;;;;;;;2.50;2.30;;;20.90;99.90;;;;;;5024356;28;20128;-62
2023/06/24 07:59:30;;;;;;;3.80;2.78;;;20.90;99.90;;;;;;5029547;28;20091;-65
2023/06/24 08:01:56;;;;;;;2.38;2.17;;;21.00;99.90;;;;;;5028577;28;20049;-63
2023/06/24 08:04:23;;;;;;;3.47;2.63;;;21.00;99.90;;;;;;5023653;28;20049;-68
2023/06/24 08:06:50;;;;;;;2.25;2.05;;;21.10;99.90;;;;;;5029455;28;20057;-64
2023/06/24 08:09:17;;;;;;;3.47;2.67;;;21.10;99.90;;;;;;5028308;28;20060;-62
2023/06/24 08:11:44;;;;;;;2.03;1.92;;;21.20;99.90;;;;;;5025084;28;20045;-64
2023/06/24 08:14:11;;;;;;;2.60;2.22;;;21.20;99.90;;;;;;5025855;28;20053;-64
2023/06/24 08:16:38;;;;;;;3.08;2.70;;;21.30;99.90;;;;;;5040210;28;20147;-62
2023/06/24 08:19:05;;;;;;;4.00;2.00;;;21.40;99.90;;;;;;5025849;28;20037;-64
2023/06/24 08:21:32;;;;;;;6.35;2.67;;;21.60;99.90;;;;;;5027473;28;20064;-62
2023/06/24 08:23:59;;;;;;;2.92;2.22;;;21.70;99.90;;;;;;5023388;28;20033;-63
2023/06/24 08:26:26;;;;;;;4.07;2.78;;;21.80;99.90;;;;;;5025777;28;20080;-66
2023/06/24 08:28:53;;;;;;;4.95;2.28;;;21.80;99.90;;;;;;5023135;28;20026;-63
2023/06/24 08:31:22;;;;;;;3.30;2.65;;;21.70;99.90;;;;;;5021647;28;20048;-63
2023/06/24 08:33:53;;;;;;;4.85;2.58;;;21.70;99.90;;;;;;5025242;28;20069;-66
2023/06/24 08:36:22;;;;;;;3.60;2.75;;;21.90;99.90;;;;;;5025746;28;20096;-67
2023/06/24 08:38:49;;;;;;;2.72;1.90;;;22.10;99.90;;;;;;5022310;28;20470;-63
2023/06/24 08:41:16;;;;;;;3.55;2.35;;;22.20;99.90;;;;;;5027481;28;20632;-63
2023/06/24 08:43:43;;;;;;;2.05;1.80;;;22.20;99.90;;;;;;5024340;28;20045;-65
2023/06/24 08:46:11;;;;;;;3.08;2.10;;;22.10;99.90;;;;;;5028015;28;20492;-67
2023/06/24 08:48:40;;;;;;;2.75;2.28;;;21.90;99.90;;;;;;5026454;28;20132;-65
2023/06/24 08:51:09;;;;;;;4.15;2.33;;;21.90;99.90;;;;;;5025632;28;20468;-63
2023/06/24 08:53:41;;;;;;;2.75;2.53;;;21.90;99.90;;;;;;5021781;28;20454;-67
2023/06/24 08:56:09;;;;;;;2.10;1.90;;;21.60;99.90;;;;;;5023076;28;20091;-65
2023/06/24 08:58:36;;;;;;;3.67;2.33;;;21.50;99.90;;;;;;5022866;28;20046;-67
2023/06/24 09:01:04;;;;;;;3.42;2.13;;;21.30;99.90;;;;;;5025116;28;20107;-63
2023/06/24 09:03:31;;;;;;;2.15;1.92;;;21.30;99.90;;;;;;5025096;28;20073;-62
2023/06/24 09:05:58;;;;;;;5.13;2.40;;;21.00;99.90;;;;;;5025380;28;20053;-63
2023/06/24 09:08:25;;;;;;;2.20;2.00;;;21.10;99.90;;;;;;5026326;28;20084;-63
2023/06/24 09:10:58;;;;;;;3.15;1.55;;;21.20;99.90;;;;;;5021602;28;20128;-62
2023/06/24 09:13:35;;;;;;;2.42;2.22;;;21.20;99.90;;;;;;5026780;28;20153;-62
2023/06/24 09:16:16;;;;;;;2.75;2.25;;;21.10;99.90;;;;;;5025362;28;20069;-63
2023/06/24 09:18:49;;;;;;;2.53;2.33;;;21.20;99.90;;;;;;5024297;28;20065;-63
2023/06/24 09:21:35;;;;;;;1.80;1.70;;;21.20;99.90;;;;;;5022867;28;20041;-62
2023/06/24 09:24:02;;;;;;;1.83;1.73;;;21.40;99.90;;;;;;5024790;28;20076;-71
2023/06/24 09:26:30;;;;;;;2.20;2.00;;;21.60;99.90;;;;;;5022828;28;20103;-63
2023/06/24 09:28:57;;;;;;;2.05;1.85;;;21.70;99.90;;;;;;5022579;28;20052;-65
2023/06/24 09:31:24;;;;;;;8.77;1.95;;;21.80;99.90;;;;;;5022403;28;20752;-62
2023/06/24 09:33:51;;;;;;;2.50;2.30;;;21.80;99.90;;;;;;5023915;28;20550;-64
2023/06/24 09:36:18;;;;;;;2.28;2.00;;;21.90;99.90;;;;;;5024870;28;20049;-65
2023/06/24 09:38:45;;;;;;;1.63;1.52;;;22.00;99.90;;;;;;5024136;28;20034;-68
2023/06/24 09:41:14;;;;;;;3.42;2.13;;;22.00;99.90;;;;;;5023876;28;20136;-63
2023/06/24 09:43:43;;;;;;;2.20;2.00;;;22.00;99.90;;;;;;5023403;28;20500;-64
2023/06/24 09:46:11;;;;;;;2.58;1.95;;;22.20;99.90;;;;;;5023167;28;20486;-69
2023/06/24 09:48:39;;;;;;;2.70;2.20;;;22.30;99.90;;;;;;5023251;28;20053;-62
2023/06/24 09:51:06;;;;;;;4.15;2.75;;;22.30;99.90;;;;;;5022696;28;20167;-62
2023/06/24 09:53:34;;;;;;;3.85;2.03;;;22.30;99.90;;;;;;5021481;28;20054;-64
2023/06/24 09:56:04;;;;;;;2.60;2.40;;;22.50;99.90;;;;;;5026578;28;20045;-63
2023/06/24 09:58:35;;;;;;;3.25;2.13;;;22.50;99.90;;;;;;5025354;28;20045;-61
2023/06/24 10:01:06;;;;;;;2.72;2.35;;;22.50;99.90;;;;;;5024171;28;20633;-63
2023/06/24 10:03:36;;;;;;;2.03;1.90;;;22.50;99.90;;;;;;5027584;28;20123;-65
2023/06/24 10:06:05;;;;;;;1.95;1.83;;;22.50;99.90;;;;;;5024305;28;20130;-62
2023/06/24 10:08:33;;;;;;;4.18;3.60;;;22.60;99.90;;;;;;5025860;28;20064;-63
2023/06/24 10:11:01;;;;;;;1.83;1.73;;;22.90;99.90;;;;;;5023140;28;20045;-64
2023/06/24 10:13:29;;;;;;;2.42;2.17;;;22.80;99.90;;;;;;5021509;28;20069;-67
2023/06/24 10:15:57;;;;;;;2.47;2.28;;;22.80;99.90;;;;;;5025726;28;20041;-63
2023/06/24 10:18:38;;;;;;;3.08;2.50;;;22.80;99.90;;;;;;5023987;28;20041;-62
2023/06/24 10:21:06;;;;;;;3.08;2.67;;;22.70;99.90;;;;;;5021877;28;20100;-63
2023/06/24 10:23:48;;;;;;;2.58;2.30;;;22.80;99.90;;;;;;5025210;28;20041;-67
2023/06/24 10:26:28;;;;;;;3.00;2.70;;;22.80;99.90;;;;;;5019043;28;20096;-63
2023/06/24 10:29:09;;;;;;;2.97;2.78;;;22.90;99.90;;;;;;5022235;28;21220;-62
2023/06/24 10:31:39;;;;;;;2.60;2.35;;;22.80;99.90;;;;;;5038364;28;20061;-65
2023/06/24 10:34:24;;;;;;;3.72;2.22;;;22.80;99.90;;;;;;5022279;28;20476;-63
2023/06/24 10:37:04;;;;;;;3.90;2.25;;;22.90;99.90;;;;;;5019994;28;20537;-65
2023/06/24 10:40:00;;;;;;;2.20;2.00;;;22.90;99.90;;;;;;5024524;28;20420;-62
2023/06/24 10:42:43;;;;;;;3.60;2.53;;;23.00;99.90;;;;;;5020704;28;20033;-64
2023/06/24 10:45:10;;;;;;;5.60;2.90;;;22.90;99.90;;;;;;5020410;28;20055;-65
2023/06/24 10:47:39;;;;;;;2.00;1.90;;;23.00;99.90;;;;;;5019421;28;20045;-63
2023/06/24 10:50:07;;;;;;;2.45;1.92;;;23.20;99.90;;;;;;5024275;28;20442;-63
2023/06/24 10:52:38;;;;;;;4.03;2.25;;;23.30;99.90;;;;;;5020438;28;20049;-65
2023/06/24 10:55:07;;;;;;;3.58;2.30;;;23.30;99.90;;;;;;5023652;28;20514;-63
2023/06/24 10:57:34;;;;;;;1.90;1.70;;;23.40;99.90;;;;;;5026258;28;20463;-63
2023/06/24 11:00:03;;;;;;;2.65;2.25;;;23.50;99.90;;;;;;5037576;28;20482;-62
2023/06/24 11:02:30;;;;;;;4.30;3.25;;;23.60;99.90;;;;;;5019606;28;20444;-64
2023/06/24 11:04:58;;;;;;;2.97;2.33;;;23.70;99.90;;;;;;5023837;28;20046;-64
2023/06/24 11:07:31;;;;;;;2.38;2.17;;;23.90;99.90;;;;;;5024686;28;20124;-63
2023/06/24 11:10:01;;;;;;;2.67;2.47;;;24.00;99.90;;;;;;5025998;28;20598;-61
2023/06/24 11:12:30;;;;;;;7.27;2.00;;;24.10;99.90;;;;;;5024026;28;20046;-64
2023/06/24 11:14:59;;;;;;;2.38;2.13;;;24.10;99.90;;;;;;5017963;28;20100;-64
2023/06/24 11:17:27;;;;;;;5.47;2.20;;;24.10;99.90;;;;;;5021745;28;20139;-62
2023/06/24 11:19:54;;;;;;;3.03;2.72;;;24.20;99.90;;;;;;5022646;28;20037;-62
2023/06/24 11:22:23;;;;;;;2.22;2.03;;;24.00;99.90;;;;;;5022923;28;20405;-66
2023/06/24 11:24:50;;;;;;;2.92;2.20;;;24.20;99.90;;;;;;5017747;28;20152;-62
2023/06/24 11:27:27;;;;;;;2.83;2.53;;;24.10;99.90;;;;;;5023226;28;20051;-63
2023/06/24 11:29:58;;;;;;;3.13;2.15;;;24.10;99.90;;;;;;5024307;28;20057;-68
2023/06/24 11:32:34;;;;;;;2.38;2.25;;;24.00;99.90;;;;;;5017637;28;20045;-61
2023/06/24 11:35:01;;;;;;;2.83;2.53;;;23.90;99.90;;;;;;5020757;28;20037;-62
2023/06/24 11:37:33;;;;;;;2.28;2.05;;;23.80;99.90;;;;;;5023281;28;20038;-65
2023/06/24 11:40:05;;;;;;;2.05;1.67;;;23.70;99.90;;;;;;5026258;28;20037;-68
2023/06/24 11:42:35;;;;;;;2.28;2.08;;;23.70;99.90;;;;;;5028471;28;20132;-62
2023/06/24 11:45:07;;;;;;;3.90;2.72;;;23.60;99.90;;;;;;5024515;28;20099;-65
2023/06/24 11:47:35;;;;;;;1.92;1.77;;;23.50;99.90;;;;;;5026497;28;20115;-64
2023/06/24 11:50:04;;;;;;;3.88;2.20;;;23.50;99.90;;;;;;5026419;28;20610;-63
2023/06/24 11:52:43;;;;;;;3.78;2.40;;;23.50;99.90;;;;;;5028579;28;20049;-63
2023/06/24 11:55:20;;;;;;;2.55;2.13;;;23.60;99.90;;;;;;5025828;28;20033;-62
2023/06/24 11:57:51;;;;;;;2.22;2.03;;;23.50;99.90;;;;;;5025429;28;20057;-65
2023/06/24 12:00:23;;;;;;;2.33;1.92;;;23.30;99.90;;;;;;5028159;28;20399;-66
2023/06/24 12:02:55;;;;;;;4.68;4.28;;;23.30;99.90;;;;;;5025839;28;20646;-65
2023/06/24 12:05:28;;;;;;;2.50;2.30;;;23.20;99.90;;;;;;5023134;28;20172;-64
2023/06/24 12:08:04;;;;;;;3.85;2.50;;;23.30;99.90;;;;;;5026963;28;20054;-62
2023/06/24 12:10:33;;;;;;;5.47;2.35;;;23.40;99.90;;;;;;5027308;28;20495;-63
2023/06/24 12:13:02;;;;;;;2.57;2.27;;;23.50;99.90;;;;;;5023926;28;20133;-64
2023/06/24 12:15:29;;;;;;;4.25;2.85;;;23.30;99.90;;;;;;5025320;28;20318;-66
2023/06/24 12:17:56;;;;;;;2.03;1.85;;;23.40;99.90;;;;;;5027902;28;20073;-62
2023/06/24 12:20:28;;;;;;;2.40;2.20;;;23.50;99.90;;;;;;5023853;28;20087;-63
2023/06/24 12:22:58;;;;;;;3.08;2.05;;;23.50;99.90;;;;;;5024510;28;20037;-63
2023/06/24 12:25:25;;;;;;;2.85;2.40;;;23.70;99.90;;;;;;5022892;28;20038;-62
2023/06/24 12:27:52;;;;;;;4.00;2.28;;;23.80;99.90;;;;;;5027295;28;20117;-63
2023/06/24 12:30:20;;;;;;;4.80;2.13;;;23.80;99.90;;;;;;5025192;28;20050;-66
2023/06/24 12:32:47;;;;;;;3.97;2.35;;;23.80;99.90;;;;;;5026170;28;20486;-63
2023/06/24 12:35:14;;;;;;;2.40;2.20;;;23.90;99.90;;;;;;5025600;28;20033;-65
2023/06/24 12:37:41;;;;;;;2.65;1.98;;;23.90;99.90;;;;;;5024780;28;20048;-66
2023/06/24 12:40:08;;;;;;;3.95;2.92;;;24.10;99.90;;;;;;5020908;28;20065;-63
2023/06/24 12:42:35;;;;;;;2.33;2.13;;;24.40;99.90;;;;;;5022531;28;20489;-65
2023/06/24 12:45:02;;;;;;;2.60;2.40;;;24.60;99.90;;;;;;5019377;28;20046;-64
2023/06/24 12:47:29;;;;;;;3.58;1.80;;;24.90;99.90;;;;;;5027136;28;20037;-67
2023/06/24 12:49:56;;;;;;;2.55;1.83;;;24.90;99.90;;;;;;5027778;28;20383;-62
2023/06/24 12:52:23;;;;;;;2.47;2.22;;;25.10;99.90;;;;;;5025420;28;20037;-64